createdAt,value
2022-11-21T00:00:32.405Z,1.20
2022-11-21T00:03:17.691Z,1.77
2022-11-21T00:06:03.080Z,1.40
2022-11-21T00:08:47.834Z,1.40
2022-11-21T00:11:33.008Z,1.30
2022-11-21T00:14:17.886Z,1.60
2022-11-21T00:17:03.000Z,1.42
2022-11-21T00:19:48.159Z,1.60
2022-11-21T00:22:33.178Z,1.92
2022-11-21T00:25:18.155Z,1.30
2022-11-21T00:28:04.058Z,1.33
2022-11-21T00:30:48.901Z,1.40
2022-11-21T00:33:38.575Z,0.70
2022-11-21T00:36:23.276Z,1.58
2022-11-21T00:39:08.590Z,1.38
2022-11-21T00:41:53.623Z,1.40
2022-11-21T00:44:38.819Z,1.13
2022-11-21T00:47:24.081Z,0.88
2022-11-21T00:50:09.663Z,1.60
2022-11-21T00:52:58.215Z,1.67
2022-11-21T00:55:43.124Z,1.63
2022-11-21T00:58:28.442Z,1.42
2022-11-21T01:01:15.459Z,1.52
2022-11-21T01:04:00.522Z,1.58
2022-11-21T01:06:45.691Z,1.55
2022-11-21T01:09:30.966Z,1.17
2022-11-21T01:12:16.047Z,1.10
2022-11-21T01:15:01.410Z,1.65
2022-11-21T01:17:46.568Z,1.60
2022-11-21T01:20:31.721Z,1.15
2022-11-21T01:23:16.558Z,1.30
2022-11-21T01:26:04.073Z,1.52
2022-11-21T01:28:49.369Z,1.20
2022-11-21T01:31:34.870Z,1.42
2022-11-21T01:34:19.681Z,1.42
2022-11-21T01:37:04.931Z,1.60
2022-11-21T01:39:50.176Z,1.58
2022-11-21T01:43:11.582Z,1.02
2022-11-21T01:45:59.341Z,1.20
2022-11-21T01:49:09.615Z,2.10
2022-11-21T01:52:06.837Z,1.33
2022-11-21T01:54:59.838Z,1.40
2022-11-21T01:57:48.450Z,1.50
2022-11-21T02:00:38.882Z,1.13
2022-11-21T02:03:27.023Z,1.20
2022-11-21T02:06:12.874Z,0.93
2022-11-21T02:08:59.912Z,1.30
2022-11-21T02:11:50.833Z,1.45
2022-11-21T02:14:38.400Z,1.25
2022-11-21T02:17:23.411Z,1.60
2022-11-21T02:20:12.000Z,1.10
2022-11-21T02:23:23.313Z,0.90
2022-11-21T02:26:08.814Z,1.23
2022-11-21T02:28:54.112Z,1.13
2022-11-21T02:31:39.270Z,1.40
2022-11-21T02:34:24.375Z,0.80
2022-11-21T02:37:10.027Z,1.10
2022-11-21T02:39:58.829Z,1.10
2022-11-21T02:42:55.183Z,1.00
2022-11-21T02:45:43.212Z,1.60
2022-11-21T02:48:28.132Z,1.03
2022-11-21T02:51:12.957Z,1.00
2022-11-21T02:53:57.937Z,1.13
2022-11-21T02:56:42.942Z,1.13
2022-11-21T02:59:28.047Z,1.25
2022-11-21T03:02:12.894Z,1.10
2022-11-21T03:04:58.158Z,1.05
2022-11-21T03:07:44.004Z,1.20
2022-11-21T03:10:28.923Z,1.30
2022-11-21T03:13:13.891Z,0.93
2022-11-21T03:15:59.558Z,1.17
2022-11-21T03:18:45.034Z,1.13
2022-11-21T03:21:29.797Z,1.20
2022-11-21T03:24:14.799Z,1.08
2022-11-21T03:26:59.956Z,1.05
2022-11-21T03:29:44.914Z,1.43
2022-11-21T03:32:30.014Z,1.55
2022-11-21T03:35:15.035Z,0.93
2022-11-21T03:37:59.770Z,1.30
2022-11-21T03:40:44.921Z,1.60
2022-11-21T03:43:30.067Z,0.90
2022-11-21T03:46:15.009Z,1.25
2022-11-21T03:49:00.333Z,1.67
2022-11-21T03:51:45.372Z,0.40
2022-11-21T03:54:30.706Z,1.23
2022-11-21T03:57:15.913Z,1.10
2022-11-21T04:00:00.970Z,1.20
2022-11-21T04:02:46.058Z,1.15
2022-11-21T04:05:31.131Z,1.15
2022-11-21T04:08:15.966Z,1.00
2022-11-21T04:11:01.107Z,1.23
2022-11-21T04:13:46.112Z,1.20
2022-11-21T04:16:31.243Z,0.70
2022-11-21T04:19:16.105Z,1.48
2022-11-21T04:22:01.281Z,1.08
2022-11-21T04:24:46.355Z,1.20
2022-11-21T04:27:31.420Z,1.60
2022-11-21T04:30:16.621Z,1.75
2022-11-21T04:33:01.438Z,1.45
2022-11-21T04:35:46.980Z,1.60
2022-11-21T04:38:32.058Z,1.60
2022-11-21T04:41:17.069Z,2.10
2022-11-21T04:44:02.395Z,1.77
2022-11-21T04:46:47.430Z,2.17
2022-11-21T04:49:32.643Z,1.92
2022-11-21T04:52:17.526Z,2.17
2022-11-21T04:55:03.629Z,2.22
2022-11-21T04:57:48.594Z,2.03
2022-11-21T05:00:34.898Z,2.40
2022-11-21T05:03:19.796Z,2.15
2022-11-21T05:06:04.894Z,2.50
2022-11-21T05:08:53.474Z,2.25
2022-11-21T05:11:57.634Z,2.42
2022-11-21T05:14:42.694Z,2.72
2022-11-21T05:17:29.130Z,2.70
2022-11-21T05:20:14.835Z,2.57
2022-11-21T05:22:59.557Z,2.85
2022-11-21T05:25:44.714Z,2.45
2022-11-21T05:28:29.773Z,2.80
2022-11-21T05:31:14.646Z,2.83
2022-11-21T05:33:59.702Z,2.83
2022-11-21T05:36:44.842Z,2.67
2022-11-21T05:39:29.994Z,2.58
2022-11-21T05:42:14.817Z,2.60
2022-11-21T05:44:59.888Z,2.65
2022-11-21T05:47:45.028Z,3.00
2022-11-21T05:50:30.209Z,2.95
2022-11-21T05:53:15.498Z,2.60
2022-11-21T05:56:06.110Z,2.40
2022-11-21T05:58:51.645Z,2.65
2022-11-21T06:01:55.290Z,3.00
2022-11-21T06:04:40.327Z,2.55
2022-11-21T06:07:25.329Z,2.13
2022-11-21T06:10:10.018Z,2.70
2022-11-21T06:12:59.932Z,2.28
2022-11-21T06:15:44.870Z,2.63
2022-11-21T06:18:32.670Z,2.60
2022-11-21T06:21:22.619Z,2.70
2022-11-21T06:24:08.120Z,2.55
2022-11-21T06:26:52.902Z,2.50
2022-11-21T06:29:38.271Z,2.57
2022-11-21T06:32:23.200Z,2.80
2022-11-21T06:35:08.434Z,3.38
2022-11-21T06:37:53.853Z,3.03
2022-11-21T06:40:39.466Z,2.38
2022-11-21T06:43:24.590Z,2.50
2022-11-21T06:46:09.999Z,2.70
2022-11-21T06:48:54.832Z,3.08
2022-11-21T06:51:39.863Z,2.50
2022-11-21T06:54:24.858Z,2.38
2022-11-21T06:57:09.833Z,2.57
2022-11-21T06:59:54.915Z,2.47
2022-11-21T07:02:39.988Z,2.53
2022-11-21T07:05:25.078Z,2.75
2022-11-21T07:08:13.300Z,2.33
2022-11-21T07:11:24.124Z,2.67
2022-11-21T07:14:09.381Z,2.60
2022-11-21T07:16:54.430Z,2.28
2022-11-21T07:19:40.982Z,2.70
2022-11-21T07:22:26.156Z,2.72
2022-11-21T07:25:10.976Z,3.20
2022-11-21T07:27:59.846Z,2.45
2022-11-21T07:30:45.106Z,2.72
2022-11-21T07:33:30.738Z,4.07
2022-11-21T07:36:16.112Z,5.05
2022-11-21T07:39:01.430Z,3.80
2022-11-21T07:41:46.221Z,3.75
2022-11-21T07:44:31.387Z,3.38
2022-11-21T07:47:16.167Z,2.90
2022-11-21T07:50:01.715Z,2.88
2022-11-21T07:52:46.495Z,2.87
2022-11-21T07:55:36.345Z,2.63
2022-11-21T07:58:24.140Z,2.45
2022-11-21T08:01:09.267Z,3.03
2022-11-21T08:03:54.103Z,2.67
2022-11-21T08:06:39.356Z,2.43
2022-11-21T08:09:28.195Z,1.63
2022-11-21T08:12:14.501Z,2.47
2022-11-21T08:14:59.697Z,2.25
2022-11-21T08:17:44.990Z,3.30
2022-11-21T08:20:29.930Z,3.17
2022-11-21T08:23:15.410Z,2.90
2022-11-21T08:26:00.373Z,2.50
2022-11-21T08:28:45.362Z,2.28
2022-11-21T08:31:30.341Z,2.20
2022-11-21T08:34:15.218Z,2.37
2022-11-21T08:37:00.219Z,2.60
2022-11-21T08:39:45.456Z,1.08
2022-11-21T08:42:30.459Z,2.20
2022-11-21T08:45:15.313Z,2.15
2022-11-21T08:48:00.801Z,2.47
2022-11-21T08:50:45.921Z,2.03
2022-11-21T08:53:31.051Z,2.40
2022-11-21T08:56:15.790Z,2.80
2022-11-21T08:59:00.933Z,2.58
2022-11-21T09:01:46.238Z,2.70
2022-11-21T09:04:31.276Z,2.63
2022-11-21T09:07:16.028Z,2.15
2022-11-21T09:10:00.961Z,2.75
2022-11-21T09:12:45.907Z,1.98
2022-11-21T09:15:49.874Z,2.50
2022-11-21T09:18:34.843Z,2.30
2022-11-21T09:21:21.186Z,1.60
2022-11-21T09:24:06.133Z,1.42
2022-11-21T09:26:50.931Z,1.80
2022-11-21T09:29:35.926Z,1.57
2022-11-21T09:32:20.855Z,1.42
2022-11-21T09:35:06.575Z,1.38
2022-11-21T09:37:51.898Z,1.40
2022-11-21T09:40:43.646Z,1.10
2022-11-21T09:43:43.445Z,1.43
2022-11-21T09:46:35.842Z,1.20
2022-11-21T09:49:22.167Z,2.08
2022-11-21T09:52:10.110Z,0.82
2022-11-21T09:55:01.407Z,1.50
2022-11-21T09:57:48.800Z,1.10
2022-11-21T10:00:33.800Z,1.02
2022-11-21T10:03:22.553Z,1.40
2022-11-21T10:06:18.062Z,1.05
2022-11-21T10:09:18.533Z,1.15
2022-11-21T10:12:32.937Z,0.50
2022-11-21T10:15:33.222Z,0.50
2022-11-21T10:18:42.770Z,0.60
2022-11-21T10:21:33.716Z,0.93
2022-11-21T10:24:40.694Z,1.10
2022-11-21T10:27:34.513Z,0.73
2022-11-21T10:30:21.313Z,0.60
2022-11-21T10:33:15.490Z,0.35
2022-11-21T10:36:16.166Z,0.70
2022-11-21T10:39:27.421Z,0.50
2022-11-21T10:42:34.877Z,0.70
2022-11-21T10:45:20.303Z,0.60
2022-11-21T10:48:08.181Z,0.50
2022-11-21T10:51:27.432Z,0.40
2022-11-21T10:54:32.721Z,0.50
2022-11-21T10:57:19.918Z,0.50
2022-11-21T11:00:13.973Z,0.38
2022-11-21T11:03:07.002Z,0.57
2022-11-21T11:05:59.190Z,0.70
2022-11-21T11:08:52.319Z,0.60
2022-11-21T11:11:37.424Z,0.57
2022-11-21T11:14:32.246Z,0.60
2022-11-21T11:17:26.820Z,0.60
2022-11-21T11:20:34.934Z,0.70
2022-11-21T11:23:19.758Z,0.30
2022-11-21T11:26:19.860Z,0.27
2022-11-21T11:29:14.274Z,0.10
2022-11-21T11:31:59.347Z,0.50
2022-11-21T11:35:00.556Z,0.60
2022-11-21T11:38:03.528Z,0.68
2022-11-21T11:40:48.327Z,0.60
2022-11-21T11:44:33.258Z,0.47
2022-11-21T11:47:30.764Z,0.60
2022-11-21T11:50:19.665Z,0.20
2022-11-21T11:53:26.307Z,0.90
2022-11-21T11:56:33.140Z,0.50
2022-11-21T11:59:33.789Z,0.57
2022-11-21T12:02:42.517Z,1.00
2022-11-21T12:05:30.683Z,0.47
2022-11-21T12:08:42.514Z,0.60
2022-11-21T12:11:58.132Z,0.50
2022-11-21T12:15:28.205Z,0.85
2022-11-21T12:18:22.156Z,0.80
2022-11-21T12:21:14.083Z,0.80
2022-11-21T12:24:03.195Z,0.70
2022-11-21T12:27:24.187Z,0.40
2022-11-21T12:30:19.677Z,0.50
2022-11-21T12:33:23.984Z,0.50
2022-11-21T12:36:25.853Z,0.50
2022-11-21T12:39:26.939Z,0.80
2022-11-21T12:42:41.626Z,0.73
2022-11-21T12:45:28.533Z,0.90
2022-11-21T12:48:37.191Z,0.80
2022-11-21T12:52:09.049Z,0.65
2022-11-21T12:55:12.170Z,0.57
2022-11-21T12:58:09.466Z,0.80
2022-11-21T13:01:15.421Z,0.70
2022-11-21T13:04:14.143Z,0.80
2022-11-21T13:07:01.312Z,0.55
2022-11-21T13:09:50.462Z,0.50
2022-11-21T13:13:02.546Z,0.37
2022-11-21T13:16:02.452Z,0.50
2022-11-21T13:18:50.041Z,0.35
2022-11-21T13:21:47.926Z,0.90
2022-11-21T13:24:45.057Z,0.57
2022-11-21T13:27:42.004Z,0.57
2022-11-21T13:30:26.859Z,0.50
2022-11-21T13:33:34.982Z,0.65
2022-11-21T13:36:28.655Z,0.40
2022-11-21T13:39:16.292Z,0.68
2022-11-21T13:42:21.075Z,0.30
2022-11-21T13:45:45.017Z,0.47
2022-11-21T13:49:05.673Z,0.60
2022-11-21T13:51:55.016Z,0.50
2022-11-21T13:55:13.242Z,0.40
2022-11-21T13:58:08.067Z,0.43
2022-11-21T14:01:31.409Z,0.50
2022-11-21T14:04:41.949Z,0.57
2022-11-21T14:07:30.757Z,0.70
2022-11-21T14:10:31.226Z,0.73
2022-11-21T14:13:27.760Z,0.70
2022-11-21T14:16:22.124Z,0.45
2022-11-21T14:19:14.789Z,0.60
2022-11-21T14:22:00.816Z,0.40
2022-11-21T14:24:47.198Z,0.60
2022-11-21T14:27:38.573Z,0.63
2022-11-21T14:30:34.969Z,0.50
2022-11-21T14:33:26.722Z,0.90
2022-11-21T14:36:23.602Z,0.50
2022-11-21T14:42:16.372Z,0.43
2022-11-21T14:45:16.484Z,0.40
2022-11-21T14:48:01.433Z,0.80
2022-11-21T14:50:46.554Z,0.50
2022-11-21T14:53:32.116Z,0.88
2022-11-21T14:56:23.255Z,0.80
2022-11-21T14:59:19.649Z,0.60
2022-11-21T15:02:32.537Z,0.85
2022-11-21T15:05:29.221Z,0.70
2022-11-21T15:09:14.761Z,0.80
2022-11-21T15:11:41.029Z,0.90
2022-11-21T15:14:50.239Z,1.15
2022-11-21T15:17:35.441Z,0.70
2022-11-21T15:20:21.403Z,0.82
2022-11-21T15:23:25.858Z,0.60
2022-11-21T15:26:31.489Z,0.60
2022-11-21T15:29:20.873Z,0.82
2022-11-21T15:32:15.613Z,0.90
2022-11-21T15:35:47.593Z,1.13
2022-11-21T15:38:56.838Z,0.90
2022-11-21T15:41:42.158Z,0.83
2022-11-21T15:44:27.416Z,0.75
2022-11-21T15:47:12.476Z,0.80
2022-11-21T15:49:57.710Z,0.90
2022-11-21T15:52:49.644Z,0.70
2022-11-21T15:55:34.767Z,0.83
2022-11-21T15:58:19.908Z,0.70
2022-11-21T16:01:05.060Z,0.75
2022-11-21T16:03:52.367Z,0.80
2022-11-21T16:06:37.234Z,0.95
2022-11-21T16:09:22.215Z,1.20
2022-11-21T16:12:08.931Z,1.17
2022-11-21T16:14:54.098Z,0.88
2022-11-21T16:17:40.431Z,1.10
2022-11-21T16:20:25.601Z,1.00
2022-11-21T16:23:11.843Z,1.10
2022-11-21T16:25:56.786Z,1.13
2022-11-21T16:28:42.159Z,1.45
2022-11-21T16:31:29.397Z,1.60
2022-11-21T16:34:18.561Z,2.40
2022-11-21T16:37:07.289Z,1.90
2022-11-21T16:39:52.698Z,2.67
2022-11-21T16:42:37.897Z,1.90
2022-11-21T16:45:22.845Z,1.60
2022-11-21T16:48:07.813Z,1.20
2022-11-21T16:50:53.229Z,1.53
2022-11-21T16:53:39.055Z,1.50
2022-11-21T16:56:24.277Z,1.00
2022-11-21T16:59:09.296Z,1.15
2022-11-21T17:01:54.190Z,1.27
2022-11-21T17:04:39.289Z,1.17
2022-11-21T17:07:24.181Z,1.20
2022-11-21T17:10:09.672Z,1.02
2022-11-21T17:12:54.478Z,0.57
2022-11-21T17:15:39.665Z,1.17
2022-11-21T17:18:24.398Z,1.50
2022-11-21T17:21:12.326Z,1.42
2022-11-21T17:23:57.706Z,1.20
2022-11-21T17:26:42.532Z,1.25
2022-11-21T17:29:28.654Z,1.42
2022-11-21T17:32:13.470Z,2.47
2022-11-21T17:34:58.527Z,1.40
2022-11-21T17:37:43.700Z,1.45
2022-11-21T17:40:28.874Z,2.15
2022-11-21T17:43:13.874Z,1.63
2022-11-21T17:46:11.896Z,1.83
2022-11-21T17:48:58.820Z,1.77
2022-11-21T17:51:44.090Z,2.00
2022-11-21T17:54:29.423Z,2.10
2022-11-21T17:57:14.524Z,2.13
2022-11-21T17:59:59.602Z,1.93
2022-11-21T18:02:44.889Z,2.00
2022-11-21T18:05:29.776Z,1.75
2022-11-21T18:08:14.710Z,1.63
2022-11-21T18:11:00.422Z,2.13
2022-11-21T18:13:45.577Z,1.50
2022-11-21T18:16:31.986Z,1.40
2022-11-21T18:19:17.128Z,1.30
2022-11-21T18:22:02.391Z,1.63
2022-11-21T18:24:47.201Z,1.50
2022-11-21T18:27:32.281Z,1.00
2022-11-21T18:30:17.142Z,1.30
2022-11-21T18:33:03.061Z,1.10
2022-11-21T18:35:48.407Z,1.05
2022-11-21T18:38:56.487Z,1.40
2022-11-21T18:41:40.528Z,1.30
2022-11-21T18:44:25.619Z,1.05
2022-11-21T18:47:20.026Z,1.50
2022-11-21T18:50:06.591Z,1.13
2022-11-21T18:52:51.514Z,1.52
2022-11-21T18:55:38.194Z,1.50
2022-11-21T18:58:23.176Z,1.60
2022-11-21T19:01:14.891Z,1.20
2022-11-21T19:04:00.037Z,1.63
2022-11-21T19:06:45.101Z,1.10
2022-11-21T19:09:32.773Z,1.30
2022-11-21T19:12:18.585Z,1.80
2022-11-21T19:15:03.478Z,1.50
2022-11-21T19:17:48.365Z,0.90
2022-11-21T19:20:34.879Z,1.30
2022-11-21T19:23:20.232Z,1.67
2022-11-21T19:26:07.601Z,1.52
2022-11-21T19:28:52.711Z,1.35
2022-11-21T19:31:44.531Z,1.42
2022-11-21T19:34:30.441Z,1.13
2022-11-21T19:37:15.528Z,1.23
2022-11-21T19:40:00.704Z,1.15
2022-11-21T19:42:45.799Z,1.52
2022-11-21T19:45:30.971Z,1.27
2022-11-21T19:48:16.767Z,1.30
2022-11-21T19:51:03.134Z,1.43
2022-11-21T19:53:49.118Z,2.00
2022-11-21T19:56:34.495Z,1.70
2022-11-21T19:59:19.285Z,1.73
2022-11-21T20:02:04.571Z,1.65
2022-11-21T20:04:49.641Z,1.47
2022-11-21T20:07:34.957Z,1.02
2022-11-21T20:10:19.685Z,1.10
2022-11-21T20:13:04.695Z,1.20
2022-11-21T20:15:49.809Z,1.45
2022-11-21T20:18:35.864Z,1.60
2022-11-21T20:21:21.136Z,3.17
2022-11-21T20:24:06.918Z,1.08
2022-11-21T20:26:53.010Z,0.88
2022-11-21T20:29:38.078Z,1.33
2022-11-21T20:32:23.061Z,4.43
2022-11-21T20:35:08.281Z,4.05
2022-11-21T20:37:53.372Z,4.15
2022-11-21T20:40:38.536Z,1.80
2022-11-21T20:43:33.203Z,3.20
2022-11-21T20:46:29.245Z,3.70
2022-11-21T20:49:14.500Z,3.03
2022-11-21T20:55:05.327Z,1.70
2022-11-21T20:57:50.380Z,1.60
2022-11-21T21:00:35.812Z,2.33
2022-11-21T21:03:20.731Z,1.60
2022-11-21T21:06:08.703Z,1.58
2022-11-21T21:08:53.974Z,2.25
2022-11-21T21:11:54.408Z,2.25
2022-11-21T21:14:39.286Z,1.63
2022-11-21T21:17:24.367Z,1.90
2022-11-21T21:20:10.638Z,1.77
2022-11-21T21:22:56.215Z,1.55
2022-11-21T21:25:42.633Z,1.90
2022-11-21T21:28:28.055Z,1.98
2022-11-21T21:31:15.657Z,1.83
2022-11-21T21:34:01.209Z,1.85
2022-11-21T21:36:46.285Z,1.88
2022-11-21T21:39:31.169Z,2.13
2022-11-21T21:42:16.058Z,1.60
2022-11-21T21:45:02.436Z,1.50
2022-11-21T21:47:47.300Z,1.13
2022-11-21T21:50:32.489Z,2.63
2022-11-21T21:53:17.390Z,1.83
2022-11-21T21:56:03.316Z,2.55
2022-11-21T21:58:49.300Z,2.27
2022-11-21T22:01:34.683Z,1.63
2022-11-21T22:04:19.795Z,1.80
2022-11-21T22:07:05.591Z,2.38
2022-11-21T22:09:50.523Z,1.75
2022-11-21T22:12:37.825Z,1.47
2022-11-21T22:15:26.111Z,1.27
2022-11-21T22:18:11.297Z,1.40
2022-11-21T22:20:56.959Z,1.65
2022-11-21T22:24:02.401Z,1.80
2022-11-21T22:26:47.882Z,1.30
2022-11-21T22:29:33.040Z,1.15
2022-11-21T22:32:19.837Z,1.10
2022-11-21T22:35:05.368Z,0.93
2022-11-21T22:37:50.732Z,1.02
2022-11-21T22:40:35.922Z,0.90
2022-11-21T22:43:20.776Z,1.10
2022-11-21T22:46:06.785Z,0.95
2022-11-21T22:48:51.569Z,1.10
2022-11-21T22:51:36.735Z,0.90
2022-11-21T22:54:21.805Z,1.20
2022-11-21T22:57:06.825Z,1.27
2022-11-21T22:59:52.271Z,0.90
2022-11-21T23:02:37.046Z,1.10
2022-11-21T23:05:21.823Z,1.25
2022-11-21T23:08:06.922Z,1.30
2022-11-21T23:10:52.071Z,1.40
2022-11-21T23:13:39.313Z,1.40
2022-11-21T23:16:25.660Z,1.40
2022-11-21T23:19:10.563Z,1.30
2022-11-21T23:21:55.767Z,1.13
2022-11-21T23:24:40.569Z,1.38
2022-11-21T23:27:25.507Z,1.00
2022-11-21T23:30:11.011Z,0.70
2022-11-21T23:32:55.804Z,0.85
2022-11-21T23:35:42.870Z,0.87
2022-11-21T23:38:27.770Z,0.90
2022-11-21T23:41:12.674Z,1.00
2022-11-21T23:43:59.730Z,0.65
2022-11-21T23:46:44.741Z,0.95
2022-11-21T23:49:30.185Z,0.90
2022-11-21T23:52:15.141Z,0.75
2022-11-21T23:55:00.100Z,0.70
2022-11-21T23:57:48.775Z,0.77
